sensor_id;sensor_type;location;lat;lon;timestamp;P1;durP1;ratioP1;P2;durP2;ratioP2
46355;SDS011;32066;49.474;11.106;2023-06-14T00:00:08;10.90;;;4.57;;
46355;SDS011;32066;49.474;11.106;2023-06-14T00:02:38;9.10;;;4.00;;
46355;SDS011;32066;49.474;11.106;2023-06-14T00:05:07;8.57;;;4.13;;
46355;SDS011;32066;49.474;11.106;2023-06-14T00:07:37;7.03;;;4.25;;
46355;SDS011;32066;49.474;11.106;2023-06-14T00:10:12;11.35;;;4.90;;
46355;SDS011;32066;49.474;11.106;2023-06-14T00:12:42;9.02;;;4.47;;
46355;SDS011;32066;49.474;11.106;2023-06-14T00:15:10;7.78;;;3.80;;
46355;SDS011;32066;49.474;11.106;2023-06-14T00:17:39;9.15;;;4.57;;
46355;SDS011;32066;49.474;11.106;2023-06-14T00:20:10;7.32;;;3.95;;
46355;SDS011;32066;49.474;11.106;2023-06-14T00:22:39;8.07;;;4.60;;
46355;SDS011;32066;49.474;11.106;2023-06-14T00:25:08;9.30;;;5.30;;
46355;SDS011;32066;49.474;11.106;2023-06-14T00:27:39;8.18;;;4.65;;
46355;SDS011;32066;49.474;11.106;2023-06-14T00:30:08;11.77;;;4.32;;
46355;SDS011;32066;49.474;11.106;2023-06-14T00:32:38;7.32;;;4.68;;
46355;SDS011;32066;49.474;11.106;2023-06-14T00:35:08;8.63;;;4.28;;
46355;SDS011;32066;49.474;11.106;2023-06-14T00:37:36;9.13;;;4.20;;
46355;SDS011;32066;49.474;11.106;2023-06-14T00:40:06;8.35;;;4.00;;
46355;SDS011;32066;49.474;11.106;2023-06-14T00:42:35;10.02;;;4.05;;
46355;SDS011;32066;49.474;11.106;2023-06-14T00:45:07;6.65;;;4.18;;
46355;SDS011;32066;49.474;11.106;2023-06-14T00:47:36;8.10;;;4.63;;
46355;SDS011;32066;49.474;11.106;2023-06-14T00:50:07;6.95;;;3.85;;
46355;SDS011;32066;49.474;11.106;2023-06-14T00:52:36;9.38;;;4.57;;
46355;SDS011;32066;49.474;11.106;2023-06-14T00:55:06;7.25;;;4.13;;
46355;SDS011;32066;49.474;11.106;2023-06-14T00:57:35;9.35;;;4.10;;
46355;SDS011;32066;49.474;11.106;2023-06-14T01:00:08;14.32;;;4.78;;
46355;SDS011;32066;49.474;11.106;2023-06-14T01:02:38;8.63;;;4.70;;
46355;SDS011;32066;49.474;11.106;2023-06-14T01:05:08;7.75;;;4.13;;
46355;SDS011;32066;49.474;11.106;2023-06-14T01:07:45;8.15;;;4.10;;
46355;SDS011;32066;49.474;11.106;2023-06-14T01:10:28;8.85;;;3.90;;
46355;SDS011;32066;49.474;11.106;2023-06-14T01:13:07;10.35;;;4.50;;
46355;SDS011;32066;49.474;11.106;2023-06-14T01:15:45;7.13;;;3.90;;
46355;SDS011;32066;49.474;11.106;2023-06-14T01:18:15;8.40;;;4.47;;
46355;SDS011;32066;49.474;11.106;2023-06-14T01:20:45;6.30;;;4.07;;
46355;SDS011;32066;49.474;11.106;2023-06-14T01:23:21;7.05;;;4.20;;
46355;SDS011;32066;49.474;11.106;2023-06-14T01:25:58;9.88;;;4.50;;
46355;SDS011;32066;49.474;11.106;2023-06-14T01:28:30;7.03;;;4.30;;
46355;SDS011;32066;49.474;11.106;2023-06-14T01:31:03;10.05;;;4.50;;
46355;SDS011;32066;49.474;11.106;2023-06-14T01:33:33;7.25;;;4.47;;
46355;SDS011;32066;49.474;11.106;2023-06-14T01:36:03;7.60;;;4.70;;
46355;SDS011;32066;49.474;11.106;2023-06-14T01:38:37;7.88;;;4.20;;
46355;SDS011;32066;49.474;11.106;2023-06-14T01:41:06;9.77;;;4.13;;
46355;SDS011;32066;49.474;11.106;2023-06-14T01:43:35;9.43;;;3.97;;
46355;SDS011;32066;49.474;11.106;2023-06-14T01:46:04;8.40;;;3.97;;
46355;SDS011;32066;49.474;11.106;2023-06-14T01:48:34;6.78;;;4.07;;
46355;SDS011;32066;49.474;11.106;2023-06-14T01:51:03;7.40;;;4.00;;
46355;SDS011;32066;49.474;11.106;2023-06-14T01:53:31;11.05;;;4.00;;
46355;SDS011;32066;49.474;11.106;2023-06-14T01:56:04;6.97;;;4.28;;
46355;SDS011;32066;49.474;11.106;2023-06-14T01:58:33;8.40;;;4.70;;
46355;SDS011;32066;49.474;11.106;2023-06-14T02:01:02;7.95;;;4.22;;
46355;SDS011;32066;49.474;11.106;2023-06-14T02:03:32;8.20;;;4.35;;
46355;SDS011;32066;49.474;11.106;2023-06-14T02:06:03;6.97;;;3.75;;
46355;SDS011;32066;49.474;11.106;2023-06-14T02:08:32;7.55;;;4.20;;
46355;SDS011;32066;49.474;11.106;2023-06-14T02:11:00;11.00;;;4.35;;
46355;SDS011;32066;49.474;11.106;2023-06-14T02:13:32;6.70;;;3.85;;
46355;SDS011;32066;49.474;11.106;2023-06-14T02:16:00;10.23;;;4.32;;
46355;SDS011;32066;49.474;11.106;2023-06-14T02:18:29;10.18;;;3.78;;
46355;SDS011;32066;49.474;11.106;2023-06-14T02:20:58;6.20;;;4.20;;
46355;SDS011;32066;49.474;11.106;2023-06-14T02:23:26;8.75;;;4.40;;
46355;SDS011;32066;49.474;11.106;2023-06-14T02:25:58;7.25;;;4.50;;
46355;SDS011;32066;49.474;11.106;2023-06-14T02:28:30;8.73;;;4.15;;
46355;SDS011;32066;49.474;11.106;2023-06-14T02:31:00;8.48;;;4.10;;
46355;SDS011;32066;49.474;11.106;2023-06-14T02:33:29;7.20;;;4.18;;
46355;SDS011;32066;49.474;11.106;2023-06-14T02:35:57;6.20;;;3.85;;
46355;SDS011;32066;49.474;11.106;2023-06-14T02:38:27;6.80;;;4.20;;
46355;SDS011;32066;49.474;11.106;2023-06-14T02:40:57;10.18;;;4.75;;
46355;SDS011;32066;49.474;11.106;2023-06-14T02:43:28;9.38;;;4.13;;
46355;SDS011;32066;49.474;11.106;2023-06-14T02:46:00;6.38;;;3.85;;
46355;SDS011;32066;49.474;11.106;2023-06-14T02:48:29;8.15;;;3.92;;
46355;SDS011;32066;49.474;11.106;2023-06-14T02:50:58;6.65;;;3.90;;
46355;SDS011;32066;49.474;11.106;2023-06-14T02:53:26;11.02;;;4.30;;
46355;SDS011;32066;49.474;11.106;2023-06-14T02:55:55;6.70;;;4.10;;
46355;SDS011;32066;49.474;11.106;2023-06-14T02:58:24;11.93;;;4.22;;
46355;SDS011;32066;49.474;11.106;2023-06-14T03:00:56;9.05;;;4.30;;
46355;SDS011;32066;49.474;11.106;2023-06-14T03:03:29;7.78;;;4.53;;
46355;SDS011;32066;49.474;11.106;2023-06-14T03:05:58;6.65;;;4.05;;
46355;SDS011;32066;49.474;11.106;2023-06-14T03:08:31;12.13;;;4.72;;
46355;SDS011;32066;49.474;11.106;2023-06-14T03:11:07;6.85;;;4.55;;
46355;SDS011;32066;49.474;11.106;2023-06-14T03:13:36;7.85;;;3.85;;
46355;SDS011;32066;49.474;11.106;2023-06-14T03:16:09;7.22;;;3.70;;
46355;SDS011;32066;49.474;11.106;2023-06-14T03:18:39;6.50;;;3.90;;
46355;SDS011;32066;49.474;11.106;2023-06-14T03:21:08;6.95;;;4.10;;
46355;SDS011;32066;49.474;11.106;2023-06-14T03:23:40;7.35;;;4.00;;
46355;SDS011;32066;49.474;11.106;2023-06-14T03:26:09;8.77;;;4.55;;
46355;SDS011;32066;49.474;11.106;2023-06-14T03:28:38;8.32;;;4.05;;
46355;SDS011;32066;49.474;11.106;2023-06-14T03:31:09;8.13;;;4.13;;
46355;SDS011;32066;49.474;11.106;2023-06-14T03:33:38;8.13;;;4.38;;
46355;SDS011;32066;49.474;11.106;2023-06-14T03:36:07;7.25;;;4.32;;
46355;SDS011;32066;49.474;11.106;2023-06-14T03:38:36;9.68;;;4.28;;
46355;SDS011;32066;49.474;11.106;2023-06-14T03:41:05;10.60;;;4.40;;
46355;SDS011;32066;49.474;11.106;2023-06-14T03:43:34;7.32;;;4.63;;
46355;SDS011;32066;49.474;11.106;2023-06-14T03:46:03;7.03;;;4.40;;
46355;SDS011;32066;49.474;11.106;2023-06-14T03:48:36;9.88;;;4.82;;
46355;SDS011;32066;49.474;11.106;2023-06-14T03:51:06;8.63;;;4.22;;
46355;SDS011;32066;49.474;11.106;2023-06-14T03:53:36;8.35;;;4.65;;
46355;SDS011;32066;49.474;11.106;2023-06-14T03:56:05;6.63;;;4.53;;
46355;SDS011;32066;49.474;11.106;2023-06-14T03:58:40;6.93;;;3.92;;
46355;SDS011;32066;49.474;11.106;2023-06-14T04:01:08;6.72;;;4.15;;
46355;SDS011;32066;49.474;11.106;2023-06-14T04:03:40;7.72;;;4.20;;
46355;SDS011;32066;49.474;11.106;2023-06-14T04:06:09;9.10;;;4.55;;
46355;SDS011;32066;49.474;11.106;2023-06-14T04:08:41;8.48;;;4.18;;
46355;SDS011;32066;49.474;11.106;2023-06-14T04:11:10;9.25;;;4.55;;
46355;SDS011;32066;49.474;11.106;2023-06-14T04:13:40;10.32;;;4.68;;
46355;SDS011;32066;49.474;11.106;2023-06-14T04:16:09;9.63;;;4.30;;
46355;SDS011;32066;49.474;11.106;2023-06-14T04:18:40;9.13;;;4.80;;
46355;SDS011;32066;49.474;11.106;2023-06-14T04:21:09;8.52;;;4.68;;
46355;SDS011;32066;49.474;11.106;2023-06-14T04:23:38;10.77;;;5.30;;
46355;SDS011;32066;49.474;11.106;2023-06-14T04:26:09;8.10;;;4.60;;
46355;SDS011;32066;49.474;11.106;2023-06-14T04:28:38;11.23;;;4.68;;
46355;SDS011;32066;49.474;11.106;2023-06-14T04:31:09;10.25;;;5.55;;
46355;SDS011;32066;49.474;11.106;2023-06-14T04:33:40;9.43;;;4.70;;
46355;SDS011;32066;49.474;11.106;2023-06-14T04:36:16;11.18;;;4.38;;
46355;SDS011;32066;49.474;11.106;2023-06-14T04:38:47;7.47;;;4.70;;
46355;SDS011;32066;49.474;11.106;2023-06-14T04:41:20;8.40;;;4.80;;
46355;SDS011;32066;49.474;11.106;2023-06-14T04:43:56;7.15;;;4.72;;
46355;SDS011;32066;49.474;11.106;2023-06-14T04:46:27;6.80;;;4.35;;
46355;SDS011;32066;49.474;11.106;2023-06-14T04:49:00;6.88;;;4.07;;
46355;SDS011;32066;49.474;11.106;2023-06-14T04:51:28;6.55;;;4.70;;
46355;SDS011;32066;49.474;11.106;2023-06-14T04:53:59;10.20;;;4.78;;
46355;SDS011;32066;49.474;11.106;2023-06-14T04:56:30;8.48;;;3.97;;
46355;SDS011;32066;49.474;11.106;2023-06-14T04:59:00;8.30;;;4.50;;
46355;SDS011;32066;49.474;11.106;2023-06-14T05:01:30;7.10;;;4.93;;
46355;SDS011;32066;49.474;11.106;2023-06-14T05:04:02;8.63;;;4.35;;
46355;SDS011;32066;49.474;11.106;2023-06-14T05:06:31;7.50;;;4.40;;
46355;SDS011;32066;49.474;11.106;2023-06-14T05:09:00;8.98;;;4.40;;
46355;SDS011;32066;49.474;11.106;2023-06-14T05:11:28;7.57;;;4.50;;
46355;SDS011;32066;49.474;11.106;2023-06-14T05:13:58;7.18;;;4.53;;
46355;SDS011;32066;49.474;11.106;2023-06-14T05:16:26;6.85;;;4.47;;
46355;SDS011;32066;49.474;11.106;2023-06-14T05:18:55;7.55;;;4.25;;
46355;SDS011;32066;49.474;11.106;2023-06-14T05:21:26;7.28;;;4.32;;
46355;SDS011;32066;49.474;11.106;2023-06-14T05:23:55;8.45;;;4.60;;
46355;SDS011;32066;49.474;11.106;2023-06-14T05:26:24;8.07;;;5.10;;
46355;SDS011;32066;49.474;11.106;2023-06-14T05:28:53;7.28;;;4.47;;
46355;SDS011;32066;49.474;11.106;2023-06-14T05:31:22;7.72;;;4.40;;
46355;SDS011;32066;49.474;11.106;2023-06-14T05:33:52;8.57;;;5.03;;
46355;SDS011;32066;49.474;11.106;2023-06-14T05:36:21;11.50;;;4.90;;
46355;SDS011;32066;49.474;11.106;2023-06-14T05:38:52;6.75;;;4.38;;
46355;SDS011;32066;49.474;11.106;2023-06-14T05:41:24;7.15;;;4.30;;
46355;SDS011;32066;49.474;11.106;2023-06-14T05:43:53;7.70;;;4.72;;
46355;SDS011;32066;49.474;11.106;2023-06-14T05:46:23;7.15;;;4.82;;
46355;SDS011;32066;49.474;11.106;2023-06-14T05:48:52;7.95;;;5.05;;
46355;SDS011;32066;49.474;11.106;2023-06-14T05:51:21;8.05;;;4.35;;
46355;SDS011;32066;49.474;11.106;2023-06-14T05:53:53;7.90;;;4.70;;
46355;SDS011;32066;49.474;11.106;2023-06-14T05:56:22;7.50;;;4.90;;
46355;SDS011;32066;49.474;11.106;2023-06-14T05:58:51;11.05;;;4.63;;
46355;SDS011;32066;49.474;11.106;2023-06-14T06:01:20;10.63;;;4.90;;
46355;SDS011;32066;49.474;11.106;2023-06-14T06:03:48;8.15;;;4.80;;
46355;SDS011;32066;49.474;11.106;2023-06-14T06:06:17;9.52;;;4.55;;
46355;SDS011;32066;49.474;11.106;2023-06-14T06:08:46;8.27;;;5.40;;
46355;SDS011;32066;49.474;11.106;2023-06-14T06:11:17;8.20;;;4.32;;
46355;SDS011;32066;49.474;11.106;2023-06-14T06:13:46;8.15;;;4.65;;
46355;SDS011;32066;49.474;11.106;2023-06-14T06:16:15;6.85;;;4.93;;
46355;SDS011;32066;49.474;11.106;2023-06-14T06:18:44;7.13;;;4.53;;
46355;SDS011;32066;49.474;11.106;2023-06-14T06:21:13;26.08;;;6.25;;
46355;SDS011;32066;49.474;11.106;2023-06-14T06:23:41;11.40;;;5.22;;
46355;SDS011;32066;49.474;11.106;2023-06-14T06:26:10;9.23;;;5.25;;
46355;SDS011;32066;49.474;11.106;2023-06-14T06:28:41;6.28;;;4.50;;
46355;SDS011;32066;49.474;11.106;2023-06-14T06:31:10;6.65;;;4.45;;
46355;SDS011;32066;49.474;11.106;2023-06-14T06:33:39;7.45;;;4.60;;
46355;SDS011;32066;49.474;11.106;2023-06-14T06:36:07;6.63;;;4.60;;
46355;SDS011;32066;49.474;11.106;2023-06-14T06:38:36;6.43;;;4.50;;
46355;SDS011;32066;49.474;11.106;2023-06-14T06:41:04;6.57;;;4.25;;
46355;SDS011;32066;49.474;11.106;2023-06-14T06:43:33;10.35;;;4.90;;
46355;SDS011;32066;49.474;11.106;2023-06-14T06:46:05;7.47;;;4.15;;
46355;SDS011;32066;49.474;11.106;2023-06-14T06:48:33;7.30;;;4.13;;
46355;SDS011;32066;49.474;11.106;2023-06-14T06:51:02;8.27;;;4.70;;
46355;SDS011;32066;49.474;11.106;2023-06-14T06:53:31;9.63;;;4.40;;
46355;SDS011;32066;49.474;11.106;2023-06-14T06:55:59;8.23;;;4.13;;
46355;SDS011;32066;49.474;11.106;2023-06-14T06:58:28;9.45;;;4.90;;
46355;SDS011;32066;49.474;11.106;2023-06-14T07:00:57;7.15;;;4.00;;
46355;SDS011;32066;49.474;11.106;2023-06-14T07:03:28;6.22;;;4.07;;
46355;SDS011;32066;49.474;11.106;2023-06-14T07:05:57;7.05;;;4.05;;
46355;SDS011;32066;49.474;11.106;2023-06-14T07:08:25;8.25;;;4.22;;
46355;SDS011;32066;49.474;11.106;2023-06-14T07:10:54;6.18;;;3.42;;
46355;SDS011;32066;49.474;11.106;2023-06-14T07:13:23;7.25;;;3.70;;
46355;SDS011;32066;49.474;11.106;2023-06-14T07:15:53;7.15;;;4.43;;
46355;SDS011;32066;49.474;11.106;2023-06-14T07:18:22;6.80;;;4.47;;
46355;SDS011;32066;49.474;11.106;2023-06-14T07:20:54;11.07;;;4.00;;
46355;SDS011;32066;49.474;11.106;2023-06-14T07:23:23;9.93;;;4.22;;
46355;SDS011;32066;49.474;11.106;2023-06-14T07:25:51;7.55;;;4.18;;
46355;SDS011;32066;49.474;11.106;2023-06-14T07:28:20;6.70;;;4.18;;
46355;SDS011;32066;49.474;11.106;2023-06-14T07:30:49;7.47;;;4.03;;
46355;SDS011;32066;49.474;11.106;2023-06-14T07:33:17;6.03;;;3.88;;
46355;SDS011;32066;49.474;11.106;2023-06-14T07:35:46;8.18;;;3.80;;
46355;SDS011;32066;49.474;11.106;2023-06-14T07:38:18;8.77;;;3.70;;
46355;SDS011;32066;49.474;11.106;2023-06-14T07:40:46;6.80;;;3.92;;
46355;SDS011;32066;49.474;11.106;2023-06-14T07:43:15;7.95;;;3.85;;
46355;SDS011;32066;49.474;11.106;2023-06-14T07:45:44;5.40;;;3.67;;
46355;SDS011;32066;49.474;11.106;2023-06-14T07:48:13;6.18;;;3.50;;
46355;SDS011;32066;49.474;11.106;2023-06-14T07:50:41;6.63;;;4.25;;
46355;SDS011;32066;49.474;11.106;2023-06-14T07:53:10;7.57;;;3.53;;
46355;SDS011;32066;49.474;11.106;2023-06-14T07:55:41;11.63;;;3.97;;
46355;SDS011;32066;49.474;11.106;2023-06-14T07:58:12;7.95;;;3.53;;
46355;SDS011;32066;49.474;11.106;2023-06-14T08:00:41;8.27;;;3.70;;
46355;SDS011;32066;49.474;11.106;2023-06-14T08:03:11;6.45;;;4.07;;
46355;SDS011;32066;49.474;11.106;2023-06-14T08:05:39;6.05;;;3.88;;
46355;SDS011;32066;49.474;11.106;2023-06-14T08:08:08;7.18;;;4.00;;
46355;SDS011;32066;49.474;11.106;2023-06-14T08:10:37;7.32;;;3.90;;
46355;SDS011;32066;49.474;11.106;2023-06-14T08:13:09;8.70;;;3.75;;
46355;SDS011;32066;49.474;11.106;2023-06-14T08:15:38;7.70;;;3.80;;
46355;SDS011;32066;49.474;11.106;2023-06-14T08:18:07;7.65;;;3.78;;
46355;SDS011;32066;49.474;11.106;2023-06-14T08:20:35;7.32;;;3.92;;
46355;SDS011;32066;49.474;11.106;2023-06-14T08:23:05;8.10;;;3.80;;
46355;SDS011;32066;49.474;11.106;2023-06-14T08:25:34;6.60;;;3.90;;
46355;SDS011;32066;49.474;11.106;2023-06-14T08:28:02;19.05;;;5.10;;
46355;SDS011;32066;49.474;11.106;2023-06-14T08:30:34;9.52;;;3.83;;
46355;SDS011;32066;49.474;11.106;2023-06-14T08:33:03;12.48;;;3.95;;
46355;SDS011;32066;49.474;11.106;2023-06-14T08:35:32;8.65;;;4.35;;
46355;SDS011;32066;49.474;11.106;2023-06-14T08:38:02;5.88;;;3.72;;
46355;SDS011;32066;49.474;11.106;2023-06-14T08:40:31;8.00;;;4.15;;
46355;SDS011;32066;49.474;11.106;2023-06-14T08:43:05;9.27;;;4.50;;
46355;SDS011;32066;49.474;11.106;2023-06-14T08:45:36;7.30;;;4.00;;
46355;SDS011;32066;49.474;11.106;2023-06-14T08:48:08;10.60;;;4.28;;
46355;SDS011;32066;49.474;11.106;2023-06-14T08:50:37;7.85;;;4.07;;
46355;SDS011;32066;49.474;11.106;2023-06-14T08:53:09;8.07;;;3.90;;
46355;SDS011;32066;49.474;11.106;2023-06-14T08:55:45;8.23;;;3.83;;
46355;SDS011;32066;49.474;11.106;2023-06-14T08:58:15;11.73;;;4.30;;
46355;SDS011;32066;49.474;11.106;2023-06-14T09:00:47;7.60;;;4.07;;
46355;SDS011;32066;49.474;11.106;2023-06-14T09:03:17;9.90;;;3.92;;
46355;SDS011;32066;49.474;11.106;2023-06-14T09:05:46;10.90;;;3.92;;
46355;SDS011;32066;49.474;11.106;2023-06-14T09:08:18;8.15;;;3.90;;
46355;SDS011;32066;49.474;11.106;2023-06-14T09:10:47;8.60;;;4.20;;
46355;SDS011;32066;49.474;11.106;2023-06-14T09:13:16;7.03;;;4.57;;
46355;SDS011;32066;49.474;11.106;2023-06-14T09:15:48;9.35;;;3.78;;
46355;SDS011;32066;49.474;11.106;2023-06-14T09:18:17;10.93;;;4.22;;
46355;SDS011;32066;49.474;11.106;2023-06-14T09:20:46;5.97;;;3.67;;
46355;SDS011;32066;49.474;11.106;2023-06-14T09:23:17;11.77;;;4.05;;
46355;SDS011;32066;49.474;11.106;2023-06-14T09:25:49;7.35;;;4.35;;
46355;SDS011;32066;49.474;11.106;2023-06-14T09:28:18;10.90;;;4.43;;
46355;SDS011;32066;49.474;11.106;2023-06-14T09:30:50;8.40;;;4.13;;
46355;SDS011;32066;49.474;11.106;2023-06-14T09:33:20;6.50;;;3.90;;
46355;SDS011;32066;49.474;11.106;2023-06-14T09:35:50;6.18;;;3.63;;
46355;SDS011;32066;49.474;11.106;2023-06-14T09:38:20;8.10;;;3.65;;
46355;SDS011;32066;49.474;11.106;2023-06-14T09:40:49;7.00;;;4.13;;
46355;SDS011;32066;49.474;11.106;2023-06-14T09:43:18;9.30;;;4.00;;
46355;SDS011;32066;49.474;11.106;2023-06-14T09:45:51;5.97;;;3.78;;
46355;SDS011;32066;49.474;11.106;2023-06-14T09:48:20;6.05;;;3.55;;
46355;SDS011;32066;49.474;11.106;2023-06-14T09:50:49;9.85;;;3.95;;
46355;SDS011;32066;49.474;11.106;2023-06-14T09:53:20;8.68;;;3.85;;
46355;SDS011;32066;49.474;11.106;2023-06-14T09:55:50;6.78;;;4.10;;
46355;SDS011;32066;49.474;11.106;2023-06-14T09:58:22;5.82;;;3.83;;
46355;SDS011;32066;49.474;11.106;2023-06-14T10:00:56;6.97;;;3.75;;
46355;SDS011;32066;49.474;11.106;2023-06-14T10:03:28;7.20;;;4.10;;
46355;SDS011;32066;49.474;11.106;2023-06-14T10:05:58;8.65;;;4.05;;
46355;SDS011;32066;49.474;11.106;2023-06-14T10:08:30;8.15;;;4.00;;
46355;SDS011;32066;49.474;11.106;2023-06-14T10:11:00;7.72;;;4.15;;
46355;SDS011;32066;49.474;11.106;2023-06-14T10:13:30;7.70;;;4.03;;
46355;SDS011;32066;49.474;11.106;2023-06-14T10:16:05;10.75;;;4.38;;
46355;SDS011;32066;49.474;11.106;2023-06-14T10:18:40;10.48;;;3.72;;
46355;SDS011;32066;49.474;11.106;2023-06-14T10:21:15;7.03;;;3.60;;
46355;SDS011;32066;49.474;11.106;2023-06-14T10:23:49;6.72;;;3.85;;
46355;SDS011;32066;49.474;11.106;2023-06-14T10:26:19;6.97;;;3.78;;
46355;SDS011;32066;49.474;11.106;2023-06-14T10:28:58;6.43;;;3.40;;
46355;SDS011;32066;49.474;11.106;2023-06-14T10:31:42;6.88;;;3.83;;
46355;SDS011;32066;49.474;11.106;2023-06-14T10:34:12;8.20;;;3.83;;
46355;SDS011;32066;49.474;11.106;2023-06-14T10:37:03;6.38;;;3.72;;
46355;SDS011;32066;49.474;11.106;2023-06-14T10:39:33;9.35;;;4.13;;
46355;SDS011;32066;49.474;11.106;2023-06-14T10:42:07;6.78;;;3.58;;
46355;SDS011;32066;49.474;11.106;2023-06-14T10:44:39;8.85;;;3.95;;
46355;SDS011;32066;49.474;11.106;2023-06-14T10:47:19;6.63;;;3.55;;
46355;SDS011;32066;49.474;11.106;2023-06-14T10:49:51;6.82;;;3.60;;
46355;SDS011;32066;49.474;11.106;2023-06-14T10:52:21;6.53;;;3.65;;
46355;SDS011;32066;49.474;11.106;2023-06-14T10:54:56;8.07;;;4.05;;
46355;SDS011;32066;49.474;11.106;2023-06-14T10:57:35;6.45;;;3.70;;
46355;SDS011;32066;49.474;11.106;2023-06-14T11:00:04;7.45;;;4.10;;
46355;SDS011;32066;49.474;11.106;2023-06-14T11:02:51;6.80;;;3.92;;
46355;SDS011;32066;49.474;11.106;2023-06-14T11:05:51;8.38;;;3.70;;
46355;SDS011;32066;49.474;11.106;2023-06-14T11:11:13;6.85;;;3.83;;
46355;SDS011;32066;49.474;11.106;2023-06-14T11:13:44;7.50;;;3.60;;
46355;SDS011;32066;49.474;11.106;2023-06-14T11:16:14;7.53;;;4.00;;
46355;SDS011;32066;49.474;11.106;2023-06-14T11:18:46;8.38;;;3.90;;
46355;SDS011;32066;49.474;11.106;2023-06-14T11:21:15;9.63;;;3.50;;
46355;SDS011;32066;49.474;11.106;2023-06-14T11:23:48;9.38;;;3.58;;
46355;SDS011;32066;49.474;11.106;2023-06-14T11:26:26;7.78;;;4.95;;
46355;SDS011;32066;49.474;11.106;2023-06-14T11:28:56;9.80;;;3.63;;
46355;SDS011;32066;49.474;11.106;2023-06-14T11:31:25;16.88;;;4.28;;
46355;SDS011;32066;49.474;11.106;2023-06-14T11:33:58;6.13;;;3.50;;
46355;SDS011;32066;49.474;11.106;2023-06-14T11:36:29;8.95;;;4.20;;
46355;SDS011;32066;49.474;11.106;2023-06-14T11:38:59;8.07;;;3.50;;
46355;SDS011;32066;49.474;11.106;2023-06-14T11:41:37;8.43;;;3.80;;
46355;SDS011;32066;49.474;11.106;2023-06-14T11:44:07;7.60;;;4.40;;
46355;SDS011;32066;49.474;11.106;2023-06-14T11:46:36;7.70;;;3.72;;
46355;SDS011;32066;49.474;11.106;2023-06-14T11:49:08;5.45;;;3.03;;
46355;SDS011;32066;49.474;11.106;2023-06-14T11:51:37;6.35;;;3.95;;
46355;SDS011;32066;49.474;11.106;2023-06-14T11:54:06;6.53;;;3.47;;
46355;SDS011;32066;49.474;11.106;2023-06-14T11:56:36;6.93;;;3.85;;
46355;SDS011;32066;49.474;11.106;2023-06-14T11:59:05;8.57;;;3.50;;
46355;SDS011;32066;49.474;11.106;2023-06-14T12:01:36;7.95;;;3.70;;
46355;SDS011;32066;49.474;11.106;2023-06-14T12:04:08;6.38;;;3.45;;
46355;SDS011;32066;49.474;11.106;2023-06-14T12:06:37;6.25;;;3.90;;
46355;SDS011;32066;49.474;11.106;2023-06-14T12:09:08;6.10;;;3.85;;
46355;SDS011;32066;49.474;11.106;2023-06-14T12:11:42;6.13;;;3.33;;
46355;SDS011;32066;49.474;11.106;2023-06-14T12:14:11;7.05;;;3.90;;
46355;SDS011;32066;49.474;11.106;2023-06-14T12:16:40;8.23;;;3.45;;
46355;SDS011;32066;49.474;11.106;2023-06-14T12:19:12;7.35;;;3.67;;
46355;SDS011;32066;49.474;11.106;2023-06-14T12:21:43;7.40;;;3.90;;
46355;SDS011;32066;49.474;11.106;2023-06-14T12:24:16;5.80;;;3.50;;
46355;SDS011;32066;49.474;11.106;2023-06-14T12:26:45;7.80;;;3.13;;
46355;SDS011;32066;49.474;11.106;2023-06-14T12:29:13;8.93;;;3.58;;
46355;SDS011;32066;49.474;11.106;2023-06-14T12:31:42;5.60;;;3.20;;
46355;SDS011;32066;49.474;11.106;2023-06-14T12:34:13;8.98;;;3.20;;
46355;SDS011;32066;49.474;11.106;2023-06-14T12:36:42;7.15;;;3.60;;
46355;SDS011;32066;49.474;11.106;2023-06-14T12:39:11;8.70;;;3.38;;
46355;SDS011;32066;49.474;11.106;2023-06-14T12:41:40;6.30;;;4.00;;
46355;SDS011;32066;49.474;11.106;2023-06-14T12:44:09;8.18;;;3.63;;
46355;SDS011;32066;49.474;11.106;2023-06-14T12:46:38;6.72;;;3.50;;
46355;SDS011;32066;49.474;11.106;2023-06-14T12:49:08;10.20;;;3.60;;
46355;SDS011;32066;49.474;11.106;2023-06-14T12:51:40;9.85;;;3.42;;
46355;SDS011;32066;49.474;11.106;2023-06-14T12:54:09;9.15;;;3.80;;
46355;SDS011;32066;49.474;11.106;2023-06-14T12:56:37;8.75;;;3.60;;
46355;SDS011;32066;49.474;11.106;2023-06-14T12:59:07;6.72;;;3.15;;
46355;SDS011;32066;49.474;11.106;2023-06-14T13:04:05;8.57;;;3.20;;
46355;SDS011;32066;49.474;11.106;2023-06-14T13:06:35;7.30;;;3.78;;
46355;SDS011;32066;49.474;11.106;2023-06-14T13:09:06;9.65;;;3.60;;
46355;SDS011;32066;49.474;11.106;2023-06-14T13:11:36;7.95;;;3.92;;
46355;SDS011;32066;49.474;11.106;2023-06-14T13:14:05;6.93;;;3.30;;
46355;SDS011;32066;49.474;11.106;2023-06-14T13:16:34;7.32;;;2.88;;
46355;SDS011;32066;49.474;11.106;2023-06-14T13:19:02;7.45;;;2.83;;
46355;SDS011;32066;49.474;11.106;2023-06-14T13:21:31;6.03;;;3.38;;
46355;SDS011;32066;49.474;11.106;2023-06-14T13:24:00;8.05;;;3.20;;
46355;SDS011;32066;49.474;11.106;2023-06-14T13:26:31;5.95;;;3.08;;
46355;SDS011;32066;49.474;11.106;2023-06-14T13:29:01;7.82;;;3.42;;
46355;SDS011;32066;49.474;11.106;2023-06-14T13:31:30;8.95;;;3.47;;
46355;SDS011;32066;49.474;11.106;2023-06-14T13:33:58;8.50;;;2.97;;
46355;SDS011;32066;49.474;11.106;2023-06-14T13:36:27;7.28;;;3.58;;
46355;SDS011;32066;49.474;11.106;2023-06-14T13:38:56;5.28;;;2.85;;
46355;SDS011;32066;49.474;11.106;2023-06-14T13:41:25;6.30;;;3.22;;
46355;SDS011;32066;49.474;11.106;2023-06-14T13:46:31;5.93;;;3.38;;
46355;SDS011;32066;49.474;11.106;2023-06-14T13:49:00;6.55;;;3.00;;
46355;SDS011;32066;49.474;11.106;2023-06-14T13:51:30;6.05;;;3.20;;
46355;SDS011;32066;49.474;11.106;2023-06-14T13:54:00;9.65;;;3.05;;
46355;SDS011;32066;49.474;11.106;2023-06-14T13:56:28;11.90;;;3.95;;
46355;SDS011;32066;49.474;11.106;2023-06-14T13:58:57;9.80;;;3.60;;
46355;SDS011;32066;49.474;11.106;2023-06-14T14:01:28;5.65;;;3.10;;
46355;SDS011;32066;49.474;11.106;2023-06-14T14:03:57;9.77;;;3.22;;
46355;SDS011;32066;49.474;11.106;2023-06-14T14:06:27;5.68;;;3.30;;
46355;SDS011;32066;49.474;11.106;2023-06-14T14:08:56;6.47;;;3.33;;
46355;SDS011;32066;49.474;11.106;2023-06-14T14:11:25;5.40;;;3.50;;
46355;SDS011;32066;49.474;11.106;2023-06-14T14:13:58;5.32;;;3.10;;
46355;SDS011;32066;49.474;11.106;2023-06-14T14:16:29;7.20;;;3.15;;
46355;SDS011;32066;49.474;11.106;2023-06-14T14:18:58;6.28;;;3.10;;
46355;SDS011;32066;49.474;11.106;2023-06-14T14:21:27;5.47;;;3.20;;
46355;SDS011;32066;49.474;11.106;2023-06-14T14:23:55;6.28;;;3.60;;
46355;SDS011;32066;49.474;11.106;2023-06-14T14:26:24;6.05;;;2.92;;
46355;SDS011;32066;49.474;11.106;2023-06-14T14:28:53;11.85;;;3.38;;
46355;SDS011;32066;49.474;11.106;2023-06-14T14:31:22;5.75;;;3.17;;
46355;SDS011;32066;49.474;11.106;2023-06-14T14:33:53;6.68;;;3.08;;
46355;SDS011;32066;49.474;11.106;2023-06-14T14:36:22;6.60;;;3.60;;
46355;SDS011;32066;49.474;11.106;2023-06-14T14:38:50;7.28;;;3.30;;
46355;SDS011;32066;49.474;11.106;2023-06-14T14:41:19;5.18;;;3.28;;
46355;SDS011;32066;49.474;11.106;2023-06-14T14:43:48;7.10;;;3.78;;
46355;SDS011;32066;49.474;11.106;2023-06-14T14:46:16;6.30;;;3.30;;
46355;SDS011;32066;49.474;11.106;2023-06-14T14:48:45;5.72;;;3.63;;
46355;SDS011;32066;49.474;11.106;2023-06-14T14:51:16;4.80;;;3.05;;
46355;SDS011;32066;49.474;11.106;2023-06-14T14:53:45;7.63;;;3.03;;
46355;SDS011;32066;49.474;11.106;2023-06-14T14:56:14;7.72;;;3.50;;
46355;SDS011;32066;49.474;11.106;2023-06-14T14:58:42;5.43;;;3.25;;